.
WxDataArchive / Data Records for 2006-08-13
2006-08-12 August 2006 2006-08-14

Data Records for Sunday, 13 August 2006

Time	Temp	Chill	HIndex	Humid	Dewpt	 Wind 	HiWind	WindDir	Rain 	Barom 
-----	----	-----	------	-----	-----	------	------	-------	-----	----- 
00:00	57.0	57.0	57.0	71	47.7	0	0	---	0.00	30.033 
00:05	56.7	56.7	56.7	71	47.4	0	0	---	0.00	30.033 
00:10	56.5	56.5	56.5	72	47.6	0	0	---	0.00	30.033 
00:15	56.3	56.3	56.3	73	47.8	0	0	---	0.00	30.034 
00:20	56.0	56.0	56.0	74	47.8	0	0	---	0.00	30.034 
00:25	55.9	55.9	55.9	74	47.7	0	0	---	0.00	30.034 
00:30	55.6	55.6	55.6	75	47.8	0	0	---	0.00	30.047 
00:35	55.4	55.4	55.4	76	48.0	0	0	---	0.00	30.047 
00:40	55.3	55.3	55.3	77	48.2	0	0	---	0.00	30.047 
00:45	55.1	55.1	55.1	77	48.0	0	0	---	0.00	30.054 
00:50	54.8	54.8	54.8	77	47.7	0	0	---	0.00	30.054 
00:55	54.7	54.7	54.7	77	47.6	0	0	---	0.00	30.054 
01:00	54.5	54.5	54.5	79	48.1	0	0	---	0.00	30.063 
01:05	54.4	54.4	54.4	80	48.4	0	0	---	0.00	30.063 
01:10	54.4	54.4	54.4	80	48.4	0	0	---	0.00	30.063 
01:15	54.4	54.4	54.4	80	48.4	0	0	---	0.00	30.068 
01:20	54.2	54.2	54.2	80	48.2	0	0	---	0.00	30.068 
01:25	54.2	54.2	54.2	80	48.2	0	0	---	0.00	30.068 
01:30	54.1	54.1	54.1	80	48.1	0	0	---	0.00	30.065 
01:35	54.1	54.1	54.1	80	48.1	0	0	---	0.00	30.065 
01:40	53.9	53.9	53.9	80	47.9	0	0	---	0.00	30.065 
01:45	53.8	53.8	53.8	81	48.1	0	0	---	0.00	30.067 
01:50	53.8	53.8	53.8	81	48.1	0	0	---	0.00	30.067 
01:55	53.6	53.6	53.6	83	48.6	0	0	---	0.00	30.067 
02:00	53.5	53.5	53.5	83	48.5	0	0	---	0.00	30.066 
02:05	53.3	53.3	53.3	84	48.6	0	0	---	0.00	30.066 
02:10	53.2	53.2	53.2	84	48.5	0	0	---	0.00	30.066 
02:15	53.2	53.2	53.2	84	48.5	0	0	---	0.00	30.063 
02:20	53.2	53.2	53.2	84	48.5	0	0	---	0.00	30.063 
02:25	53.2	53.2	53.2	85	48.8	0	0	---	0.00	30.063 
02:30	53.1	53.1	53.1	84	48.4	0	0	---	0.00	30.061 
02:35	53.1	53.1	53.1	85	48.7	0	0	---	0.00	30.061 
02:40	53.1	53.1	53.1	85	48.7	0	0	---	0.00	30.061 
02:45	52.9	52.9	52.9	85	48.5	0	0	---	0.00	30.059 
02:50	52.9	52.9	52.9	85	48.5	0	0	---	0.00	30.059 
02:55	52.9	52.9	52.9	85	48.5	0	0	---	0.00	30.059 
03:00	52.9	52.9	52.9	86	48.8	0	0	---	0.00	30.052 
03:05	52.9	52.9	52.9	85	48.5	0	0	---	0.00	30.052 
03:10	52.9	52.9	52.9	85	48.5	0	0	---	0.00	30.052 
03:15	53.2	53.2	53.2	84	48.5	0	0	---	0.00	30.050 
03:20	53.5	53.5	53.5	84	48.8	0	1	112	0.00	30.050 
03:25	53.8	53.8	53.8	83	48.8	0	0	---	0.00	30.050 
03:30	53.9	53.9	53.9	83	48.9	0	0	---	0.00	30.054 
03:35	54.1	54.1	54.1	83	49.1	0	1	112	0.00	30.054 
03:40	54.1	54.1	54.1	83	49.1	0	0	---	0.00	30.054 
03:45	53.9	53.9	53.9	83	48.9	0	0	---	0.00	30.049 
03:50	53.8	53.8	53.8	83	48.8	0	0	---	0.00	30.049 
03:55	53.6	53.6	53.6	83	48.6	0	0	---	0.00	30.049 
04:00	53.6	53.6	53.6	84	48.9	0	0	---	0.00	30.047 
04:05	53.5	53.5	53.5	84	48.8	0	0	---	0.00	30.047 
04:10	53.5	53.5	53.5	85	49.1	0	0	---	0.00	30.047 
04:15	53.3	53.3	53.3	85	48.9	0	0	---	0.00	30.046 
04:20	53.3	53.3	53.3	85	48.9	0	0	---	0.00	30.046 
04:25	53.3	53.3	53.3	85	48.9	0	0	---	0.00	30.046 
04:30	53.3	53.3	53.3	85	48.9	0	0	---	0.00	30.048 
04:35	53.3	53.3	53.3	86	49.2	0	0	---	0.00	30.048 
04:40	53.3	53.3	53.3	86	49.2	0	0	---	0.00	30.048 
04:45	53.3	53.3	53.3	86	49.2	0	0	---	0.00	30.046 
04:50	53.3	53.3	53.3	87	49.5	0	0	---	0.00	30.046 
04:55	53.3	53.3	53.3	87	49.5	0	0	---	0.00	30.046 
05:00	53.3	53.3	53.3	87	49.5	0	0	---	0.00	30.045 
05:05	53.3	53.3	53.3	88	49.8	0	0	---	0.00	30.045 
05:10	53.5	53.5	53.5	88	50.0	0	0	---	0.00	30.045 
05:15	53.6	53.6	53.6	88	50.1	0	0	---	0.00	30.043 
05:20	53.8	53.8	53.8	87	50.0	0	0	---	0.00	30.043 
05:25	53.8	53.8	53.8	87	50.0	0	1	112	0.00	30.043 
05:30	53.9	53.9	53.9	87	50.1	0	0	---	0.00	30.045 
05:35	54.1	54.1	54.1	87	50.3	0	0	---	0.00	30.045 
05:40	54.5	54.5	54.5	86	50.4	0	2	68	0.00	30.045 
05:45	54.8	54.8	54.8	85	50.4	0	1	68	0.00	30.047 
05:50	55.1	55.1	55.1	84	50.4	0	2	68	0.00	30.047 
05:55	55.4	55.4	55.4	84	50.6	0	1	68	0.00	30.047 
06:00	55.7	55.7	55.7	83	50.6	0	1	68	0.00	30.049 
06:05	55.9	55.9	55.9	83	50.8	0	1	68	0.00	30.049 
06:10	55.9	55.9	55.9	82	50.5	0	1	68	0.00	30.049 
06:15	56.0	56.0	56.0	82	50.6	0	1	68	0.00	30.051 
06:20	56.0	56.0	56.0	82	50.6	0	0	---	0.00	30.051 
06:25	56.0	56.0	56.0	82	50.6	0	1	68	0.00	30.051 
06:30	55.9	55.9	55.9	83	50.8	0	1	68	0.00	30.047 
06:35	55.9	55.9	55.9	83	50.8	0	1	68	0.00	30.047 
06:40	55.7	55.7	55.7	83	50.6	0	1	68	0.00	30.047 
06:45	55.7	55.7	55.7	83	50.6	0	2	68	0.00	30.053 
06:50	55.9	55.9	55.9	83	50.8	0	2	68	0.00	30.053 
06:55	55.9	55.9	55.9	83	50.8	0	3	90	0.00	30.053 
07:00	56.0	56.0	56.0	83	50.9	0	1	90	0.00	30.052 
07:05	56.0	56.0	56.0	82	50.6	0	2	90	0.00	30.052 
07:10	56.0	56.0	56.0	82	50.6	0	3	90	0.00	30.052 
07:15	56.0	56.0	56.0	82	50.6	0	1	90	0.00	30.056 
07:20	56.2	56.2	56.2	82	50.8	0	2	90	0.00	30.056 
07:25	56.3	56.3	56.3	82	50.9	1	3	90	0.00	30.056 
07:30	56.5	56.5	56.5	81	50.7	1	2	90	0.00	30.058 
07:35	56.7	56.7	56.7	81	50.9	0	2	90	0.00	30.058 
07:40	57.2	57.2	57.2	80	51.1	1	2	90	0.00	30.058 
07:45	57.6	57.6	57.6	79	51.1	1	2	90	0.00	30.064 
07:50	58.1	58.1	58.1	78	51.3	1	3	90	0.00	30.064 
07:55	58.4	58.4	58.4	78	51.6	1	3	112	0.00	30.064 
08:00	58.9	58.9	58.9	77	51.7	1	3	112	0.00	30.061 
08:05	59.3	59.3	59.3	77	52.1	1	3	112	0.00	30.061 
08:10	59.6	59.6	59.6	77	52.4	1	5	90	0.00	30.061 
08:15	59.9	59.9	59.9	76	52.3	2	4	90	0.00	30.065 
08:20	60.2	60.2	60.2	76	52.6	2	5	112	0.00	30.065 
08:25	60.5	60.5	60.5	75	52.5	2	5	90	0.00	30.065 
08:30	60.9	60.9	60.9	75	52.9	1	3	90	0.00	30.063 
08:35	61.2	61.2	61.2	74	52.8	2	5	90	0.00	30.063 
08:40	61.2	61.2	61.2	75	53.2	2	5	90	0.00	30.063 
08:45	61.2	61.2	61.2	76	53.6	2	4	90	0.00	30.066 
08:50	61.6	61.6	61.6	75	53.6	1	3	90	0.00	30.066 
08:55	62.1	62.1	62.1	74	53.7	2	3	90	0.00	30.066 
09:00	62.4	62.4	62.4	73	53.6	2	5	90	0.00	30.065 
09:05	62.9	62.9	62.9	75	54.8	1	4	90	0.00	30.065 
09:10	63.5	63.5	63.5	72	54.3	1	3	68	0.00	30.065 
09:15	64.3	64.3	64.3	72	55.1	1	3	68	0.00	30.074 
09:20	64.8	64.8	64.8	71	55.2	1	3	68	0.00	30.074 
09:25	65.2	65.2	65.2	70	55.2	2	4	90	0.00	30.074 
09:30	65.2	65.2	65.2	71	55.6	2	6	90	0.00	30.072 
09:35	65.5	65.5	65.5	71	55.8	1	3	90	0.00	30.072 
09:40	66.0	66.0	66.0	69	55.5	1	3	90	0.00	30.072 
09:45	66.6	66.6	66.6	69	56.1	1	3	90	0.00	30.066 
09:50	67.1	67.1	67.1	66	55.4	1	4	90	0.00	30.066 
09:55	67.4	67.4	67.4	67	56.1	2	5	90	0.00	30.066 
10:00	67.8	67.8	67.8	67	56.4	1	4	90	0.00	30.063 
10:05	68.4	68.4	68.4	63	55.3	2	5	90	0.00	30.063 
10:10	69.1	69.1	69.1	61	55.1	1	3	90	0.00	30.063 
10:15	69.4	69.4	69.4	59	54.4	3	6	90	0.00	30.063 
10:20	69.8	69.8	69.8	61	55.7	1	4	90	0.00	30.063 
10:25	70.4	70.4	70.4	59	55.4	1	4	90	0.00	30.063 
10:30	71.3	71.3	71.3	56	54.8	1	4	112	0.00	30.065 
10:35	71.3	71.3	71.3	57	55.3	2	5	90	0.00	30.065 
10:40	71.5	71.5	71.5	57	55.5	2	4	90	0.00	30.065 
10:45	71.8	71.8	71.8	55	54.7	1	3	90	0.00	30.064 
10:50	72.1	72.1	72.1	55	55.0	2	6	68	0.00	30.064 
10:55	72.3	72.3	72.3	56	55.7	1	4	90	0.00	30.064 
11:00	72.8	72.8	72.8	57	56.7	1	3	90	0.00	30.065 
11:05	73.2	73.2	73.2	54	55.5	1	3	90	0.00	30.065 
11:10	73.7	73.7	73.7	55	56.5	1	5	270	0.00	30.065 
11:15	73.3	73.3	73.3	55	56.1	2	4	90	0.00	30.068 
11:20	73.3	73.3	73.3	57	57.1	2	4	90	0.00	30.068 
11:25	73.3	73.3	73.3	58	57.6	2	4	90	0.00	30.068 
11:30	74.0	74.0	74.0	55	56.8	2	5	112	0.00	30.062 
11:35	74.9	74.9	74.9	52	56.1	1	5	90	0.00	30.062 
11:40	75.4	75.4	77.8	53	57.1	1	5	90	0.00	30.062 
11:45	75.8	75.8	78.0	51	56.4	2	5	90	0.00	30.056 
11:50	75.3	75.3	77.7	52	56.4	3	5	90	0.00	30.056 
11:55	75.1	75.1	77.6	53	56.8	2	4	90	0.00	30.056 
12:00	75.8	75.8	78.0	53	57.4	2	7	112	0.00	30.049 
12:05	75.8	75.8	78.0	52	56.9	3	7	90	0.00	30.049 
12:10	76.3	76.3	78.2	53	57.9	3	6	112	0.00	30.049 
12:15	77.0	77.0	78.7	52	58.0	1	5	68	0.00	30.044 
12:20	77.2	77.2	78.7	51	57.6	2	4	112	0.00	30.044 
12:25	77.7	77.7	79.1	52	58.6	2	4	90	0.00	30.044 
12:30	77.2	77.2	78.8	53	58.7	3	6	90	0.00	30.040 
12:35	77.6	77.6	79.2	55	60.1	1	4	112	0.00	30.040 
12:40	77.7	77.7	79.2	54	59.7	3	6	90	0.00	30.040 
12:45	77.6	77.6	79.0	52	58.6	3	5	90	0.00	30.035 
12:50	77.9	77.9	79.3	54	59.9	2	5	112	0.00	30.035 
12:55	78.1	78.1	79.5	55	60.6	3	6	112	0.00	30.035 
13:00	78.8	78.8	79.9	52	59.7	1	3	90	0.00	30.031 
13:05	79.6	79.6	80.7	53	60.9	1	3	90	0.00	30.031 
13:10	80.1	80.1	81.2	53	61.4	2	4	90	0.00	30.031 
13:15	80.1	80.1	81.1	52	60.9	2	5	90	0.00	30.028 
13:20	79.8	79.8	81.1	55	62.2	2	5	90	0.00	30.028 
13:25	79.6	79.6	80.9	55	62.0	3	6	68	0.00	30.028 
13:30	79.6	79.6	80.8	54	61.5	3	10	90	0.00	30.024 
13:35	79.6	79.6	80.8	54	61.5	3	9	90	0.00	30.024 
13:40	79.6	79.6	80.7	53	60.9	2	6	112	0.00	30.024 
13:45	80.3	80.3	81.4	53	61.6	1	3	90	0.00	30.018 
13:50	81.1	81.1	82.0	51	61.2	1	4	248	0.00	30.018 
13:55	81.6	81.6	82.9	54	63.3	2	5	270	0.00	30.018 
14:00	81.4	81.4	82.5	53	62.6	3	6	90	0.00	30.014 
14:05	80.9	80.9	82.3	55	63.2	2	5	90	0.00	30.014 
14:10	81.1	81.1	82.2	53	62.3	1	3	68	0.00	30.014 
14:15	80.9	80.9	81.8	51	61.0	2	6	90	0.00	30.014 
14:20	80.9	80.9	82.1	54	62.7	1	3	90	0.00	30.014 
14:25	81.6	81.6	82.2	49	60.6	1	4	68	0.00	30.014 
14:30	82.2	82.2	82.7	48	60.5	2	4	90	0.00	30.013 
14:35	82.6	82.6	83.1	48	60.9	1	3	135	0.00	30.013 
14:40	82.0	82.0	82.9	51	62.1	1	3	90	0.00	30.013 
14:45	81.4	81.4	82.1	50	60.9	2	5	90	0.00	30.013 
14:50	81.2	81.2	82.3	53	62.4	1	3	90	0.00	30.013 
14:55	81.4	81.4	82.4	52	62.1	2	6	112	0.00	30.013 
15:00	81.4	81.4	82.1	50	60.9	2	5	90	0.00	30.009 
15:05	81.2	81.2	82.7	56	64.0	1	3	90	0.00	30.009 
15:10	81.6	81.6	82.2	49	60.6	1	4	90	0.00	30.009 
15:15	81.6	81.6	82.5	51	61.7	4	7	90	0.00	29.996 
15:20	81.6	81.6	82.3	50	61.1	1	3	90	0.00	29.996 
15:25	81.8	81.8	82.6	50	61.3	2	5	90	0.00	29.996 
15:30	82.0	82.0	82.8	50	61.5	1	3	0	0.00	29.991 
15:35	82.2	82.2	82.8	49	61.1	2	5	112	0.00	29.991 
15:40	82.2	82.2	82.7	48	60.5	2	5	90	0.00	29.991 
15:45	82.2	82.2	83.1	51	62.2	2	7	90	0.00	29.985 
15:50	82.4	82.4	83.5	52	63.0	2	6	90	0.00	29.985 
15:55	82.2	82.2	83.0	50	61.7	2	4	112	0.00	29.985 
16:00	81.2	81.2	81.9	50	60.8	1	4	68	0.00	29.986 
16:05	80.5	80.5	81.5	52	61.2	2	5	90	0.00	29.986 
16:10	80.3	80.3	81.3	52	61.0	1	4	135	0.00	29.986 
16:15	80.9	80.9	81.6	50	60.5	1	3	112	0.00	29.980 
16:20	81.4	81.4	82.0	49	60.4	2	4	90	0.00	29.980 
16:25	82.0	82.0	82.5	48	60.3	1	4	112	0.00	29.980 
16:30	81.8	81.8	82.6	50	61.3	2	5	90	0.00	29.975 
16:35	81.8	81.8	82.4	49	60.7	2	5	90	0.00	29.975 
16:40	82.2	82.2	82.7	48	60.5	1	4	90	0.00	29.975 
16:45	82.0	82.0	82.8	50	61.5	2	5	90	0.00	29.968 
16:50	82.0	82.0	82.6	49	60.9	2	4	90	0.00	29.968 
16:55	82.4	82.4	83.0	49	61.3	1	5	90	0.00	29.968 
17:00	82.8	82.8	83.7	50	62.2	1	4	90	0.00	29.965 
17:05	83.2	83.2	83.6	47	60.8	2	4	90	0.00	29.965 
17:10	83.0	83.0	83.4	47	60.7	2	3	112	0.00	29.965 
17:15	83.0	83.0	83.5	48	61.3	2	5	90	0.00	29.961 
17:20	83.0	83.0	83.5	48	61.3	1	3	90	0.00	29.961 
17:25	82.8	82.8	83.0	46	59.9	1	2	90	0.00	29.961 
17:30	82.6	82.6	83.0	47	60.3	1	3	45	0.00	29.960 
17:35	82.6	82.6	82.8	46	59.7	1	3	90	0.00	29.960 
17:40	82.8	82.8	83.0	46	59.9	1	4	90	0.00	29.960 
17:45	82.8	82.8	83.2	47	60.5	2	5	112	0.00	29.961 
17:50	82.4	82.4	83.0	49	61.3	2	5	90	0.00	29.961 
17:55	82.0	82.0	82.3	47	59.8	0	2	90	0.00	29.961 
18:00	81.8	81.8	82.3	48	60.2	1	3	90	0.00	29.955 
18:05	81.2	81.2	81.7	48	59.6	0	2	90	0.00	29.955 
18:10	81.1	81.1	81.7	49	60.1	0	1	90	0.00	29.955 
18:15	80.9	80.9	81.6	50	60.5	1	3	90	0.00	29.952 
18:20	81.1	81.1	81.8	50	60.7	1	2	90	0.00	29.952 
18:25	81.1	81.1	81.7	49	60.1	1	2	90	0.00	29.952 
18:30	81.2	81.2	81.8	49	60.2	1	4	22	0.00	29.952 
18:35	81.4	81.4	82.1	50	60.9	0	2	248	0.00	29.952 
18:40	81.4	81.4	81.9	48	59.8	1	3	248	0.00	29.952 
18:45	81.2	81.2	81.6	47	59.0	2	5	248	0.00	29.949 
18:50	81.1	81.1	81.7	49	60.1	1	3	248	0.00	29.949 
18:55	81.1	81.1	81.7	49	60.1	1	3	270	0.00	29.949 
19:00	81.1	81.1	81.8	50	60.7	0	2	270	0.00	29.945 
19:05	80.9	80.9	81.8	51	61.0	0	2	270	0.00	29.945 
19:10	80.5	80.5	81.4	51	60.7	0	2	270	0.00	29.945 
19:15	80.3	80.3	81.1	50	59.9	0	1	270	0.00	29.933 
19:20	80.1	80.1	81.1	52	60.9	0	1	270	0.00	29.933 
19:25	79.9	79.9	81.0	53	61.2	0	1	270	0.00	29.933 
19:30	79.8	79.8	80.9	53	61.1	0	0	---	0.00	29.930 
19:35	79.6	79.6	80.7	53	60.9	0	1	270	0.00	29.930 
19:40	79.4	79.4	80.6	54	61.3	0	0	---	0.00	29.930 
19:45	79.4	79.4	80.6	54	61.3	0	1	270	0.00	29.929 
19:50	79.2	79.2	80.4	54	61.1	0	0	---	0.00	29.929 
19:55	79.0	79.0	80.3	54	60.9	0	0	---	0.00	29.929 
20:00	79.0	79.0	80.3	55	61.4	0	1	270	0.00	29.928 
20:05	78.8	78.8	80.2	56	61.8	0	0	---	0.00	29.928 
20:10	78.5	78.5	79.9	55	61.0	0	0	---	0.00	29.928 
20:15	78.3	78.3	79.8	56	61.3	0	0	---	0.00	29.923 
20:20	78.1	78.1	79.6	57	61.6	0	0	---	0.00	29.923 
20:25	77.7	77.7	79.3	57	61.2	0	1	270	0.00	29.923 
20:30	77.6	77.6	79.2	57	61.1	0	0	---	0.00	29.924 
20:35	77.2	77.2	78.9	58	61.3	0	0	---	0.00	29.924 
20:40	76.8	76.8	78.6	58	60.9	0	0	---	0.00	29.924 
20:45	76.5	76.5	78.4	59	61.1	0	0	---	0.00	29.926 
20:50	76.1	76.1	78.1	61	61.7	0	0	---	0.00	29.926 
20:55	75.8	75.8	77.8	62	61.8	0	0	---	0.00	29.926 
21:00	75.3	75.3	77.4	63	61.8	0	0	---	0.00	29.929 
21:05	74.7	74.7	74.7	64	61.7	0	0	---	0.00	29.929 
21:10	74.4	74.4	74.4	65	61.8	0	0	---	0.00	29.929 
21:15	73.9	73.9	73.9	66	61.8	0	0	---	0.00	29.928 
21:20	73.3	73.3	73.3	68	62.1	0	0	---	0.00	29.928 
21:25	72.8	72.8	72.8	68	61.6	0	0	---	0.00	29.928 
21:30	72.5	72.5	72.5	69	61.7	0	0	---	0.00	29.932 
21:35	72.1	72.1	72.1	70	61.8	0	0	---	0.00	29.932 
21:40	71.8	71.8	71.8	71	61.9	0	0	---	0.00	29.932 
21:45	71.6	71.6	71.6	72	62.1	0	0	---	0.00	29.943 
21:50	71.3	71.3	71.3	73	62.2	0	0	---	0.00	29.943 
21:55	70.9	70.9	70.9	73	61.8	0	0	---	0.00	29.943 
22:00	70.8	70.8	70.8	74	62.1	0	0	---	0.00	29.947 
22:05	70.4	70.4	70.4	74	61.7	0	0	---	0.00	29.947 
22:10	70.3	70.3	70.3	75	62.0	0	0	---	0.00	29.947 
22:15	70.1	70.1	70.1	75	61.8	0	0	---	0.00	29.945 
22:20	69.9	69.9	69.9	76	62.0	0	0	---	0.00	29.945 
22:25	69.6	69.6	69.6	77	62.1	0	0	---	0.00	29.945 
22:30	69.4	69.4	69.4	78	62.2	0	0	---	0.00	29.947 
22:35	69.1	69.1	69.1	78	61.9	0	0	---	0.00	29.947 
22:40	68.9	68.9	68.9	78	61.7	0	0	---	0.00	29.947 
22:45	68.8	68.8	68.8	79	62.0	0	0	---	0.00	29.945 
22:50	68.4	68.4	68.4	80	62.0	0	0	---	0.00	29.945 
22:55	68.3	68.3	68.3	80	61.9	0	0	---	0.00	29.945 
23:00	67.9	67.9	67.9	80	61.5	0	0	---	0.00	29.944 
23:05	67.8	67.8	67.8	81	61.7	0	0	---	0.00	29.944 
23:10	67.6	67.6	67.6	81	61.6	0	0	---	0.00	29.944 
23:15	67.4	67.4	67.4	82	61.7	0	0	---	0.00	29.943 
23:20	67.3	67.3	67.3	83	62.0	0	0	---	0.00	29.943 
23:25	67.1	67.1	67.1	83	61.8	0	0	---	0.00	29.943 
23:30	66.9	66.9	66.9	83	61.6	0	0	---	0.00	29.944 
23:35	66.8	66.8	66.8	83	61.5	0	0	---	0.00	29.944 
23:40	66.6	66.6	66.6	84	61.6	0	0	---	0.00	29.944 
23:45	66.4	66.4	66.4	84	61.4	0	0	---	0.00	29.942 
23:50	66.3	66.3	66.3	85	61.6	0	0	---	0.00	29.942 
23:55	66.1	66.1	66.1	85	61.5	0	0	---	0.00	29.942 

CoCoRaHS
IN-AL-39
A2 Web Hosting
Creative Commons License
GoDaddy
Look for:

loaded 2017-12-12 01:29:00 • last modified 2010-11-18 10:43:29
Privacy PolicyDisclaimer
• wx.awcolley.com is powered by PmWiki v.2002016 •
• all content (unless otherwise noted) © 2017 A W Colley